WEATHER DATA

TODAY
Time Temp. Dewp. Hum. Wind dir Wind speed Wind gust Bar. 1h Prec. 24h Prec.
00:08 8.5 5.1 79 349 0.3 1.1 1021.9 0.0000 0.0000
00:18 8.5 5.1 79 12 0.3 1.4 1022 0.0000 0.0000
00:29 8.3 4.9 79 3 0.3 1.1 1022 0.0000 0.0000
00:39 8.3 4.9 79 0 0.3 1.1 1022.1 0.0000 0.0000
00:49 8.3 4.9 79 0 0.3 0.8 1022.1 0.0000 0.0000
00:59 8.3 4.7 78 4 0.3 1.1 1022.2 0.0000 0.0000
01:10 8.2 4.6 78 357 0.3 1.1 1022 0.0000 0.0000
01:19 8.1 4.5 78 11 0.3 1.1 1022.2 0.0000 0.0000
01:29 8.1 4.5 78 8 0.3 0.8 1022.2 0.0000 0.0000
01:40 8 4.4 78 345 0.3 1.1 1022.2 0.0000 0.0000
01:50 7.8 4.2 78 354 0.3 1.1 1022.1 0.0000 0.0000
02:00 7.7 4.1 78 6 0.3 0.8 1022.2 0.0000 0.0000
02:10 7.6 4 78 10 0.3 1.1 1022.2 0.0000 0.0000
02:21 7.5 4.1 79 350 0.3 1.1 1022.2 0.0000 0.0000
02:31 7.4 3.8 78 0 0.3 0.8 1022.1 0.0000 0.0000
02:40 7.3 3.9 79 351 0.3 0.8 1022 0.0000 0.0000
02:50 7.4 3.8 78 336 0.3 1.1 1022.1 0.0000 0.0000
03:01 7.2 3.6 78 323 0.3 1.1 1022 0.0000 0.0000
03:11 7.1 3.5 78 331 0.3 1.1 1021.9 0.0000 0.0000
03:21 7 3.4 78 343 0.3 1.1 1022.1 0.0000 0.0000
03:32 6.9 3.5 79 351 0.3 0.8 1022 0.0000 0.0000
03:42 6.8 3.4 79 339 0.3 1.1 1021.9 0.0000 0.0000
03:51 6.8 3.6 80 315 0.3 1.1 1021.8 0.0000 0.0000
04:01 6.8 3.6 80 344 0.3 1.1 1021.8 0.0000 0.0000
04:12 6.7 3.5 80 352 0.3 1.1 1021.8 0.0000 0.0000
04:32 6.6 3.8 82 345 0.3 1.4 1021.8 0.0000 0.0000
04:42 6.6 3.6 81 0 0.3 0.8 1021.6 0.0000 0.0000
04:53 6.6 3.6 81 356 0.3 1.1 1021.6 0.0000 0.0000
05:02 6.6 3.6 81 315 0.3 1.1 1021.7 0.0000 0.0000
05:12 6.4 3.4 81 355 0.3 0.8 1021.7 0.0000 0.0000
05:23 6.4 3.4 81 0 0.3 0.8 1021.8 0.0000 0.0000
05:33 6.4 3.4 81 0 0.3 1.1 1021.9 0.0000 0.0000
05:43 6.3 3.5 82 315 0.3 1.1 1021.7 0.0000 0.0000
05:53 6.4 3.6 82 344 0.3 1.1 1021.8 0.0000 0.0000
06:04 6.4 3.6 82 0 0.3 1.1 1021.6 0.0000 0.0000
06:14 6.4 3.6 82 180 0.3 1.1 1021.7 0.0000 0.0000
06:23 6.4 3.6 82 351 0.3 1.4 1021.6 0.0000 0.0000
06:33 6.4 3.6 82 0 0.3 1.4 1021.5 0.0000 0.0000
06:44 6.4 3.6 82 351 0.3 1.1 1021.5 0.0000 0.0000
06:54 6.4 3.7 83 353 0.3 1.4 1021.6 0.0000 0.0000
07:04 6.4 3.6 82 0 0.3 1.1 1021.6 0.0000 0.0000
07:15 6.3 3.6 83 0 0.3 1.1 1021.7 0.0000 0.0000
07:31 6.3 3.6 83 225 0.3 0.8 1021.7 0.0000 0.0000
07:41 6.3 3.5 82 333 0.3 1.1 1021.7 0.0000 0.0000
07:51 6.1 3.3 82 348 0.3 1.1 1021.8 0.0000 0.0000
08:01 6 3.2 82 344 0.3 1.1 1022 0.0000 0.0000
08:11 6.1 3.3 82 356 0.3 0.8 1022 0.0000 0.0000
08:21 6.2 3.5 83 351 0.3 0.8 1022 0.0000 0.0000
08:31 6.3 3.6 83 0 0.3 0.8 1022 0.0000 0.0000
08:42 6.5 3.8 83 315 0.3 1.1 1022.2 0.0000 0.0000
08:52 6.6 3.9 83 11 0.3 1.1 1022.2 0.0000 0.0000
09:02 6.8 4.1 83 315 0.3 1.1 1022.1 0.0000 0.0000
09:12 7 4.5 84 341 0.3 1.1 1022.3 0.0000 0.0000
09:22 7.2 4.7 84 315 0.3 1.4 1022.5 0.0000 0.0000
09:32 7.4 4.9 84 270 0.3 1.1 1022.5 0.0000 0.0000
09:42 7.5 5 84 341 0.3 1.1 1022.7 0.0000 0.0000
09:53 7.8 5.3 84 315 0.3 1.1 1022.6 0.0000 0.0000
10:03 8 5.5 84 356 0.3 0.8 1022.6 0.0000 0.0000
10:13 8.4 6 85 356 0.3 1.1 1022.7 0.0000 0.0000
10:23 8.8 6.4 85 315 0.3 0.8 1022.6 0.0000 0.0000
10:33 9.2 6.8 85 339 0.3 1.1 1022.6 0.0000 0.0000
10:43 10.4 8 85 355 0.3 0.8 1022.8 0.0000 0.0000
10:53 11.4 8.4 82 350 0.3 1.1 1022.7 0.0000 0.0000
11:03 12.3 9 80 0 0.3 0.8 1022.8 0.0000 0.0000
11:14 12.7 8.8 77 45 0.3 0.8 1022.9 0.0000 0.0000
11:24 13.1 9.2 77 336 0.3 1.7 1022.8 0.0000 0.0000
11:33 13.7 9.6 76 329 0.3 1.1 1022.7 0.0000 0.0000
11:44 14.3 9.9 75 326 0.3 1.4 1022.8 0.0000 0.0000
11:54 15 10.2 73 315 0.3 1.1 1022.8 0.0000 0.0000
12:04 15.6 10.6 72 315 0.3 1.1 1022.5 0.0000 0.0000
12:14 16.2 10.7 70 45 0.3 0.8 1022.5 0.0000 0.0000
12:24 16.7 11.2 70 348 0.3 0.8 1022.3 0.0000 0.0000
12:34 17.2 10.8 66 135 0.3 1.1 1022.3 0.0000 0.0000
12:44 17.7 11.5 67 270 0.3 1.4 1022.5 0.0000 0.0000
12:54 18.1 11.7 66 0 0.3 1.1 1022.2 0.0000 0.0000
13:04 18.6 11.9 65 206 0.3 0.8 1022.1 0.0000 0.0000
13:14 18.8 11.4 62 270 0.3 1.1 1022 0.0000 0.0000
13:24 19 11.6 62 315 0.3 1.1 1022 0.0000 0.0000
13:34 19.2 11.3 60 270 0.8 2.8 1021.8 0.0000 0.0000
13:44 19.3 11.4 60 321 0.8 2.5 1021.8 0.0000 0.0000
13:54 19.3 11.1 59 325 0.8 2.2 1022 0.0000 0.0000
14:04 19.3 10.8 58 320 0.3 1.7 1021.8 0.0000 0.0000
14:14 19.4 10.9 58 318 0.8 2.2 1021.8 0.0000 0.0000
14:24 19.4 10.9 58 316 1.1 3.1 1021.8 0.0000 0.0000
14:35 19.4 10.7 57 315 0.8 3.6 1021.8 0.0000 0.0000
14:44 19.3 10.6 57 341 0.8 2.2 1021.9 0.0000 0.0000
14:54 19.2 10.5 57 315 1.1 4.2 1021.7 0.0000 0.0000
15:04 18.9 10.2 57 333 0.8 1.7 1021.8 0.0000 0.0000
15:15 18.2 9.8 58 324 0.3 1.4 1021.9 0.0000 0.0000
15:24 17.7 9.6 59 317 1.1 3.1 1021.8 0.0000 0.0000
15:34 17.3 9.7 61 329 1.1 3.6 1021.7 0.0000 0.0000
15:45 17.4 9.8 61 333 1.1 3.1 1021.7 0.0000 0.0000
15:55 17.5 9.9 61 45 0.8 1.7 1021.8 0.0000 0.0000
16:04 17.7 10.1 61 153 0.8 2.2 1022 0.0000 0.0000
16:14 17.4 9.8 61 315 0.8 1.7 1021.9 0.0000 0.0000
16:25 17.1 9.8 62 350 0.8 1.4 1021.9 0.0000 0.0000
16:35 16.7 9.6 63 0 0.3 1.4 1021.8 0.0000 0.0000
16:44 16.3 9.5 64 12 0.3 1.1 1021.7 0.0000 0.0000
16:55 16 9.4 65 23 0.3 0.8 1021.9 0.0000 0.0000
17:05 15.5 9.2 66 28 0.3 1.1 1021.9 0.0000 0.0000
17:15 15.1 9 67 34 0.3 0.8 1021.9 0.0000 0.0000

DAY STATISTIC

2018-10-18
TEMPERATURE
AVERAGE
11.0
HIGH
19.4
14:14
LOW
6.0
08:01
PRESSURE
AVERAGE
1022.1
HIGH
1022.9
11:14
LOW
1021.5
06:33
DEWPOINT
AVERAGE
6.5
HIGH
11.9
13:04
LOW
3.2
08:01
HUMIDITY
AVERAGE
75
HIGH
85
10:13
LOW
57
14:35
WIND SPEED
AVERAGE
0.4
HIGH
1.1
14:24
WIND GUST
AVERAGE
1.3
HIGH
4.2
14:54
WIND DIRECTION
PREVAILING
N
54.5%
N
54.5
NE
5.9
E
0.0
SE
2.0
S
1.0
SW
2.0
W
4.0
NW
30.7
PRECIPITATION
RAIN HOUR
0.0
RAIN DAY
0.0
TEMPERATURE (°C)
LOW
6.0
HIGH
19.4
AVERAGE
11.0
PRESSURE (hpa)
LOW
1021.5
HIGH
1022.9
AVERAGE
1022.1
DEVICE